Time;durP1;ratioP1;P1;durP2;ratioP2;P2;SDS_P1;SDS_P2;PMS_P1;PMS_P2;Temp;Humidity;BMP_temperature;BMP_pressure;BME280_temperature;BME280_humidity;BME280_pressure;Samples;Min_cycle;Max_cycle;Signal;HPM_P1;HPM_P2
2022/03/04 00:01:46;;;;;;;87.38;30.10;;;3.80;73.20;;;;;;4989533;28;20042;-71
2022/03/04 00:04:14;;;;;;;97.30;31.95;;;3.90;73.10;;;;;;4992245;28;21082;-71
2022/03/04 00:06:42;;;;;;;75.00;28.77;;;4.10;72.10;;;;;;4994024;28;20139;-70
2022/03/04 00:09:09;;;;;;;71.38;26.70;;;4.20;72.80;;;;;;4991259;28;20056;-71
2022/03/04 00:11:36;;;;;;;64.45;24.20;;;4.30;71.80;;;;;;4989450;28;20077;-71
2022/03/04 00:14:03;;;;;;;61.05;23.02;;;4.20;71.80;;;;;;4991330;28;20826;-71
2022/03/04 00:16:31;;;;;;;57.45;22.00;;;4.20;71.50;;;;;;4988917;28;20238;-71
2022/03/04 00:19:09;;;;;;;61.35;23.17;;;4.10;71.80;;;;;;4975329;28;20042;-71
2022/03/04 00:21:43;;;;;;;60.42;23.00;;;4.10;72.10;;;;;;4973541;28;20057;-71
2022/03/04 00:24:10;;;;;;;58.75;20.67;;;4.30;71.60;;;;;;4990748;28;20054;-71
2022/03/04 00:26:38;;;;;;;60.05;23.17;;;4.30;71.20;;;;;;4991974;28;20042;-71
2022/03/04 00:29:07;;;;;;;59.28;21.63;;;4.30;71.30;;;;;;5006842;28;20058;-71
2022/03/04 00:31:35;;;;;;;57.75;20.98;;;4.20;71.10;;;;;;4987050;28;20069;-71
2022/03/04 00:34:06;;;;;;;54.03;21.15;;;4.20;70.70;;;;;;4985333;28;20144;-71
2022/03/04 00:36:35;;;;;;;60.00;21.55;;;4.30;70.90;;;;;;5006224;28;20661;-70
2022/03/04 00:39:05;;;;;;;64.10;22.48;;;4.20;71.40;;;;;;4987086;28;20042;-71
2022/03/04 00:41:32;;;;;;;57.60;21.80;;;4.00;71.40;;;;;;4990288;28;20041;-71
2022/03/04 00:43:59;;;;;;;66.93;22.90;;;3.80;72.10;;;;;;4989711;28;20050;-71
2022/03/04 00:46:27;;;;;;;58.25;23.52;;;3.80;72.80;;;;;;5004590;28;20046;-71
2022/03/04 00:48:54;;;;;;;68.47;23.58;;;4.00;73.00;;;;;;4991503;28;20041;-70
2022/03/04 00:51:21;;;;;;;57.53;22.30;;;4.20;72.90;;;;;;4994723;28;20453;-71
2022/03/04 00:53:48;;;;;;;59.20;23.08;;;4.30;72.40;;;;;;4969903;28;20060;-71
2022/03/04 00:56:15;;;;;;;58.90;22.52;;;4.40;72.00;;;;;;4998358;28;20131;-71
2022/03/04 00:58:43;;;;;;;63.75;23.33;;;4.30;71.90;;;;;;5002050;28;20112;-71
2022/03/04 01:01:10;;;;;;;55.65;21.60;;;4.30;71.60;;;;;;4991994;28;20062;-71
2022/03/04 01:03:37;;;;;;;65.40;22.75;;;4.40;71.30;;;;;;4989358;28;20524;-71
2022/03/04 01:06:06;;;;;;;67.53;23.98;;;4.50;70.90;;;;;;4985476;28;20057;-71
2022/03/04 01:08:33;;;;;;;57.03;21.38;;;4.40;70.90;;;;;;4989196;28;20042;-71
2022/03/04 01:11:01;;;;;;;55.67;20.63;;;4.50;70.50;;;;;;4988334;28;20036;-71
2022/03/04 01:13:29;;;;;;;50.58;17.85;;;4.50;70.00;;;;;;4990796;28;20042;-71
2022/03/04 01:15:56;;;;;;;45.20;17.40;;;4.50;70.00;;;;;;4990820;28;22605;-71
2022/03/04 01:18:24;;;;;;;45.03;17.42;;;4.60;69.40;;;;;;4991055;28;20056;-71
2022/03/04 01:20:51;;;;;;;45.10;15.93;;;4.80;69.00;;;;;;4989930;28;20095;-71
2022/03/04 01:23:18;;;;;;;42.47;16.75;;;4.80;68.70;;;;;;4982942;28;20046;-71
2022/03/04 01:25:46;;;;;;;45.53;17.65;;;4.90;68.50;;;;;;4988598;28;20121;-71
2022/03/04 01:28:13;;;;;;;37.78;16.88;;;5.00;67.80;;;;;;4988676;28;20042;-71
2022/03/04 01:30:43;;;;;;;41.90;15.60;;;5.20;67.50;;;;;;4987709;28;20609;-71
2022/03/04 01:33:10;;;;;;;38.40;15.80;;;5.20;67.60;;;;;;4992451;28;20046;-71
2022/03/04 01:35:38;;;;;;;40.63;15.70;;;5.10;67.80;;;;;;5005142;28;20077;-71
2022/03/04 01:38:06;;;;;;;40.30;16.15;;;5.00;68.30;;;;;;4987717;28;20046;-71
2022/03/04 01:40:33;;;;;;;40.03;15.65;;;4.90;68.60;;;;;;4989792;28;20688;-71
2022/03/04 01:43:01;;;;;;;36.80;15.80;;;5.00;68.70;;;;;;4991004;28;20050;-71
2022/03/04 01:45:28;;;;;;;41.05;15.48;;;4.90;69.00;;;;;;4988999;28;20665;-71
2022/03/04 01:47:55;;;;;;;41.50;15.60;;;4.80;69.10;;;;;;5004299;28;20484;-71
2022/03/04 01:50:24;;;;;;;40.78;15.70;;;4.90;69.10;;;;;;5004274;28;20771;-71
2022/03/04 01:52:51;;;;;;;48.88;17.00;;;5.00;68.70;;;;;;4984307;28;20056;-71
2022/03/04 01:55:18;;;;;;;40.20;15.55;;;5.00;68.90;;;;;;4972541;28;20109;-71
2022/03/04 01:57:46;;;;;;;39.75;14.65;;;5.00;69.10;;;;;;5004766;28;20085;-71
2022/03/04 02:00:14;;;;;;;38.33;14.45;;;5.10;68.90;;;;;;4971603;28;20096;-71
2022/03/04 02:02:42;;;;;;;34.58;14.40;;;5.10;69.30;;;;;;4990860;28;20434;-71
2022/03/04 02:05:18;;;;;;;32.85;12.85;;;5.10;69.30;;;;;;4987058;28;20156;-71
2022/03/04 02:07:45;;;;;;;34.92;13.10;;;5.00;69.60;;;;;;4984174;28;20048;-71
2022/03/04 02:10:12;;;;;;;32.88;14.73;;;5.00;69.50;;;;;;4987473;28;20576;-71
2022/03/04 02:12:40;;;;;;;34.28;13.55;;;5.10;70.10;;;;;;4988335;28;20078;-71
2022/03/04 02:15:08;;;;;;;29.73;11.10;;;5.10;70.20;;;;;;4990466;28;20104;-71
2022/03/04 02:17:36;;;;;;;27.80;11.10;;;5.20;69.80;;;;;;4987803;28;20129;-71
2022/03/04 02:20:05;;;;;;;27.92;10.63;;;5.40;69.20;;;;;;4987345;28;20064;-71
2022/03/04 02:22:32;;;;;;;25.95;10.38;;;5.50;68.70;;;;;;4990761;28;20053;-71
2022/03/04 02:25:00;;;;;;;25.92;10.85;;;5.60;68.40;;;;;;5002976;28;20041;-71
2022/03/04 02:27:28;;;;;;;28.88;10.65;;;5.80;68.40;;;;;;4986512;28;20153;-71
2022/03/04 02:29:55;;;;;;;29.65;11.13;;;5.90;68.10;;;;;;5002543;28;20112;-71
2022/03/04 02:32:22;;;;;;;28.27;10.00;;;5.90;68.20;;;;;;4987247;28;20044;-71
2022/03/04 02:34:49;;;;;;;26.40;10.85;;;5.70;68.20;;;;;;4986373;28;20112;-71
2022/03/04 02:37:16;;;;;;;25.17;10.18;;;5.90;68.10;;;;;;4987488;28;20543;-71
2022/03/04 02:39:43;;;;;;;27.92;10.40;;;6.00;67.70;;;;;;4989074;28;20034;-71
2022/03/04 02:42:10;;;;;;;30.27;10.43;;;6.00;67.20;;;;;;5002013;28;20046;-71
2022/03/04 02:44:37;;;;;;;25.80;10.60;;;6.00;67.20;;;;;;5001081;28;20566;-71
2022/03/04 02:47:05;;;;;;;31.08;10.40;;;5.90;67.60;;;;;;4996068;28;20062;-71
2022/03/04 02:49:32;;;;;;;29.98;11.30;;;5.90;67.70;;;;;;4987695;28;20553;-71
2022/03/04 02:51:59;;;;;;;26.15;10.50;;;5.80;68.00;;;;;;4988359;28;20046;-71
2022/03/04 02:54:26;;;;;;;27.95;11.48;;;5.70;68.40;;;;;;4990522;28;20061;-71
2022/03/04 02:56:53;;;;;;;28.05;11.85;;;5.60;69.20;;;;;;5003431;28;20738;-71
2022/03/04 02:59:20;;;;;;;25.48;11.18;;;5.60;68.70;;;;;;5004011;28;20042;-71
2022/03/04 03:01:48;;;;;;;29.48;11.98;;;5.60;68.90;;;;;;4985889;28;20042;-71
2022/03/04 03:04:15;;;;;;;26.27;11.60;;;5.60;68.90;;;;;;4984803;28;20050;-70
2022/03/04 03:06:44;;;;;;;27.00;10.23;;;5.50;69.10;;;;;;5003339;28;20039;-71
2022/03/04 03:09:11;;;;;;;32.00;11.10;;;5.60;68.90;;;;;;4987754;28;20045;-70
2022/03/04 03:11:39;;;;;;;28.52;10.88;;;5.60;69.30;;;;;;4986047;28;20057;-71
2022/03/04 03:14:06;;;;;;;32.40;11.93;;;5.70;69.10;;;;;;4985194;28;20140;-71
2022/03/04 03:16:33;;;;;;;35.92;12.30;;;5.60;69.40;;;;;;4982916;28;20132;-71
2022/03/04 03:19:01;;;;;;;30.17;12.00;;;5.50;70.10;;;;;;4982030;28;20049;-71
2022/03/04 03:21:28;;;;;;;34.15;12.63;;;5.50;70.90;;;;;;4985685;28;20039;-71
2022/03/04 03:23:55;;;;;;;27.40;10.30;;;5.50;70.10;;;;;;5005711;28;20689;-70
2022/03/04 03:26:24;;;;;;;26.20;11.00;;;5.40;69.90;;;;;;4992405;28;20041;-71
2022/03/04 03:28:52;;;;;;;22.98;10.52;;;5.40;70.10;;;;;;4991566;28;20073;-71
2022/03/04 03:31:19;;;;;;;26.55;10.88;;;5.30;70.00;;;;;;4996865;28;20049;-71
2022/03/04 03:33:46;;;;;;;25.85;10.57;;;5.30;70.90;;;;;;4989912;28;20575;-71
2022/03/04 03:36:13;;;;;;;26.40;10.43;;;5.30;70.80;;;;;;4991552;28;20050;-71
2022/03/04 03:38:40;;;;;;;25.30;10.13;;;5.40;70.20;;;;;;5008880;28;20073;-71
2022/03/04 03:41:07;;;;;;;21.77;10.32;;;5.50;69.80;;;;;;5005854;28;20053;-71
2022/03/04 03:43:40;;;;;;;30.30;11.07;;;5.50;69.70;;;;;;4990851;28;20980;-71
2022/03/04 03:46:08;;;;;;;30.23;11.20;;;5.50;69.10;;;;;;4993073;28;20041;-71
2022/03/04 03:48:39;;;;;;;28.02;11.15;;;5.60;68.70;;;;;;4988025;28;20052;-71
2022/03/04 03:51:08;;;;;;;29.52;11.50;;;5.50;68.70;;;;;;4987048;28;20052;-71
2022/03/04 03:53:35;;;;;;;26.58;10.65;;;5.50;68.50;;;;;;4988828;28;20041;-71
2022/03/04 03:56:03;;;;;;;25.58;11.32;;;5.50;68.70;;;;;;5007803;28;20057;-71
2022/03/04 03:58:30;;;;;;;34.33;11.52;;;5.50;68.70;;;;;;4988290;28;20553;-71
2022/03/04 04:00:58;;;;;;;23.40;9.77;;;5.50;68.90;;;;;;4991116;28;20038;-71
2022/03/04 04:03:25;;;;;;;32.22;10.95;;;5.50;68.70;;;;;;4992874;28;20112;-70
2022/03/04 04:05:52;;;;;;;26.05;11.20;;;5.70;67.70;;;;;;4988475;28;20081;-71
2022/03/04 04:08:19;;;;;;;26.45;10.93;;;5.60;67.90;;;;;;4988694;28;20061;-71
2022/03/04 04:10:46;;;;;;;24.75;10.75;;;5.50;68.20;;;;;;4990181;28;20082;-71
2022/03/04 04:13:15;;;;;;;26.15;11.20;;;5.60;67.50;;;;;;4990970;28;20077;-71
2022/03/04 04:15:45;;;;;;;28.60;11.68;;;5.50;67.10;;;;;;5005273;28;21025;-71
2022/03/04 04:18:12;;;;;;;34.70;10.98;;;5.50;67.30;;;;;;4989875;28;20501;-71
2022/03/04 04:20:39;;;;;;;23.38;10.70;;;5.40;67.80;;;;;;4987147;28;20049;-71
2022/03/04 04:23:06;;;;;;;25.05;10.88;;;5.40;68.00;;;;;;4987304;28;20851;-71
2022/03/04 04:25:33;;;;;;;30.80;11.40;;;5.50;67.20;;;;;;4989693;28;20038;-71
2022/03/04 04:28:00;;;;;;;25.17;10.73;;;5.60;66.50;;;;;;4989446;28;22324;-71
2022/03/04 04:30:29;;;;;;;28.48;10.68;;;5.40;66.80;;;;;;4986827;28;20054;-71
2022/03/04 04:32:57;;;;;;;26.52;10.15;;;5.40;67.20;;;;;;4987562;28;20074;-71
2022/03/04 04:35:24;;;;;;;22.40;10.68;;;5.50;67.20;;;;;;4984776;28;20046;-70
2022/03/04 04:37:51;;;;;;;29.88;10.73;;;5.30;67.40;;;;;;4988139;28;20100;-71
2022/03/04 04:40:18;;;;;;;28.77;10.90;;;5.30;67.70;;;;;;5004189;28;20157;-71
2022/03/04 04:42:45;;;;;;;28.85;10.30;;;5.40;67.30;;;;;;5000470;28;20057;-71
2022/03/04 04:45:13;;;;;;;32.03;11.30;;;5.40;67.30;;;;;;4991886;28;20034;-71
2022/03/04 04:47:40;;;;;;;26.20;10.70;;;5.30;67.50;;;;;;4988223;28;20112;-71
2022/03/04 04:50:07;;;;;;;24.45;11.00;;;5.30;68.10;;;;;;4992158;28;20097;-71
2022/03/04 04:52:34;;;;;;;25.13;11.23;;;5.20;67.80;;;;;;4987699;28;20470;-71
2022/03/04 04:55:01;;;;;;;27.80;11.35;;;5.30;67.90;;;;;;4992392;28;20124;-71
2022/03/04 04:57:28;;;;;;;28.65;10.38;;;5.40;67.50;;;;;;5005111;28;20049;-71
2022/03/04 04:59:55;;;;;;;29.00;10.05;;;5.30;67.50;;;;;;4988057;28;20069;-71
2022/03/04 05:02:22;;;;;;;26.52;10.43;;;5.30;67.50;;;;;;4987949;28;20042;-71
2022/03/04 05:04:50;;;;;;;28.90;10.00;;;5.40;67.50;;;;;;4989058;28;20038;-71
2022/03/04 05:07:17;;;;;;;32.03;11.60;;;5.40;67.30;;;;;;4991326;28;20105;-71
2022/03/04 05:09:44;;;;;;;25.70;11.07;;;5.40;67.40;;;;;;4989676;28;20061;-70
2022/03/04 05:12:11;;;;;;;24.65;10.10;;;5.40;67.20;;;;;;4990086;28;20033;-71
2022/03/04 05:14:38;;;;;;;27.70;10.38;;;5.30;67.90;;;;;;4988106;28;20042;-71
2022/03/04 05:17:08;;;;;;;35.80;12.95;;;5.10;68.30;;;;;;4986236;28;20054;-70
2022/03/04 05:19:35;;;;;;;23.77;10.15;;;5.10;68.50;;;;;;4987033;28;20050;-71
2022/03/04 05:22:02;;;;;;;24.90;9.90;;;5.10;68.80;;;;;;4974411;28;20088;-71
2022/03/04 05:24:29;;;;;;;29.27;12.52;;;5.10;68.70;;;;;;4988312;28;20033;-71
2022/03/04 05:26:56;;;;;;;30.23;11.80;;;4.90;69.10;;;;;;4986331;28;20054;-71
2022/03/04 05:29:23;;;;;;;30.17;11.68;;;4.90;69.80;;;;;;4997183;28;20612;-71
2022/03/04 05:31:50;;;;;;;26.17;10.95;;;5.00;69.40;;;;;;4988501;28;20069;-71
2022/03/04 05:34:17;;;;;;;29.65;11.88;;;5.00;69.40;;;;;;4990057;28;20093;-70
2022/03/04 05:36:44;;;;;;;32.58;11.85;;;5.00;68.70;;;;;;4985208;28;20054;-70
2022/03/04 05:39:12;;;;;;;30.88;12.68;;;5.00;69.40;;;;;;4986906;28;20153;-70
2022/03/04 05:41:39;;;;;;;33.67;13.07;;;5.00;68.70;;;;;;5002679;28;20414;-70
2022/03/04 05:44:06;;;;;;;32.83;13.23;;;4.90;69.20;;;;;;4985272;28;20050;-70
2022/03/04 05:46:33;;;;;;;33.92;12.93;;;4.90;68.60;;;;;;4970922;28;20489;-70
2022/03/04 05:49:02;;;;;;;37.58;13.30;;;5.00;68.90;;;;;;4987638;28;20109;-70
2022/03/04 05:51:30;;;;;;;36.53;14.23;;;4.90;68.90;;;;;;5004510;28;20131;-70
2022/03/04 05:53:57;;;;;;;47.13;16.02;;;4.90;69.10;;;;;;4988728;28;20555;-70
2022/03/04 05:56:25;;;;;;;41.42;15.77;;;5.00;68.90;;;;;;4971700;28;20057;-70
2022/03/04 05:58:52;;;;;;;39.97;14.95;;;5.10;69.20;;;;;;4992441;28;20112;-70
2022/03/04 06:01:19;;;;;;;41.25;16.73;;;5.20;68.50;;;;;;4986303;28;20486;-70
2022/03/04 06:03:46;;;;;;;48.00;18.20;;;5.20;67.90;;;;;;4972765;28;20049;-70
2022/03/04 06:06:14;;;;;;;48.80;18.30;;;5.10;68.00;;;;;;4988203;28;20169;-71
2022/03/04 06:08:41;;;;;;;56.78;20.98;;;5.20;68.10;;;;;;4990343;28;20745;-70
2022/03/04 06:11:09;;;;;;;46.65;20.15;;;5.30;68.30;;;;;;4990191;28;20053;-70
2022/03/04 06:13:37;;;;;;;48.88;20.27;;;5.20;69.10;;;;;;4985504;28;20053;-70
2022/03/04 06:16:05;;;;;;;46.97;20.77;;;5.20;68.90;;;;;;4987989;28;20054;-70
2022/03/04 06:18:32;;;;;;;40.35;17.08;;;5.30;68.60;;;;;;4990786;28;20065;-70
2022/03/04 06:21:00;;;;;;;38.95;15.40;;;5.30;68.90;;;;;;4989031;28;20125;-70
2022/03/04 06:23:27;;;;;;;40.13;14.85;;;5.40;68.90;;;;;;4989734;28;20038;-70
2022/03/04 06:25:55;;;;;;;42.00;16.73;;;5.30;68.60;;;;;;4972108;28;20136;-70
2022/03/04 06:28:24;;;;;;;43.13;17.85;;;5.30;69.30;;;;;;4998147;28;20052;-70
2022/03/04 06:30:51;;;;;;;48.60;15.90;;;5.30;69.00;;;;;;4992029;28;20042;-70
2022/03/04 06:33:30;;;;;;;39.50;14.82;;;5.30;68.70;;;;;;4994036;28;20124;-70
2022/03/04 06:36:13;;;;;;;34.70;15.02;;;5.40;68.30;;;;;;4989872;28;20045;-70
2022/03/04 06:38:44;;;;;;;36.17;14.35;;;5.50;68.20;;;;;;4987240;28;20056;-70
2022/03/04 06:41:12;;;;;;;34.40;13.38;;;5.50;68.90;;;;;;4989130;28;20050;-70
2022/03/04 06:43:43;;;;;;;30.55;13.63;;;5.50;67.70;;;;;;5005520;28;20434;-70
2022/03/04 06:46:10;;;;;;;31.92;13.35;;;5.60;67.70;;;;;;5006869;28;20567;-71
2022/03/04 06:48:37;;;;;;;31.92;14.70;;;5.50;67.60;;;;;;5003757;28;20489;-70
2022/03/04 06:51:05;;;;;;;39.80;13.85;;;5.60;67.20;;;;;;4989500;28;20053;-70
2022/03/04 06:53:32;;;;;;;32.75;13.23;;;5.60;67.60;;;;;;4991013;28;20516;-70
2022/03/04 06:55:59;;;;;;;31.30;12.82;;;5.60;67.70;;;;;;4989416;28;20050;-70
2022/03/04 06:58:26;;;;;;;37.10;14.52;;;5.70;67.50;;;;;;4983905;28;20098;-70
2022/03/04 07:00:55;;;;;;;40.17;14.90;;;5.70;67.20;;;;;;4989508;28;20065;-70
2022/03/04 07:03:23;;;;;;;34.83;14.32;;;5.80;68.10;;;;;;5009124;28;20046;-70
2022/03/04 07:05:50;;;;;;;38.63;14.15;;;5.80;67.60;;;;;;4991727;28;20932;-70
2022/03/04 07:08:17;;;;;;;41.38;14.75;;;5.80;67.60;;;;;;4993243;28;20115;-70
2022/03/04 07:10:48;;;;;;;35.45;13.98;;;5.90;67.10;;;;;;4993318;28;20080;-70
2022/03/04 07:13:15;;;;;;;31.08;11.80;;;5.90;67.00;;;;;;4994837;28;20042;-70
2022/03/04 07:15:42;;;;;;;37.33;13.38;;;5.90;67.30;;;;;;4991159;28;20475;-70
2022/03/04 07:18:10;;;;;;;36.45;13.80;;;5.80;67.90;;;;;;4988819;28;20042;-71
2022/03/04 07:20:39;;;;;;;36.50;13.73;;;5.80;68.10;;;;;;4994332;28;20827;-70
2022/03/04 07:23:06;;;;;;;34.30;12.90;;;5.90;68.80;;;;;;4991283;28;20041;-70
2022/03/04 07:25:33;;;;;;;32.20;12.60;;;6.00;69.90;;;;;;5007502;28;20160;-70
2022/03/04 07:28:03;;;;;;;38.00;14.38;;;6.10;70.30;;;;;;4988623;28;20147;-70
2022/03/04 07:30:30;;;;;;;32.83;13.30;;;6.00;71.00;;;;;;4996026;28;20045;-71
2022/03/04 07:32:58;;;;;;;27.17;11.73;;;6.00;71.40;;;;;;4985335;28;20050;-71
2022/03/04 07:35:27;;;;;;;31.60;13.20;;;5.90;71.00;;;;;;4996941;28;20046;-70
2022/03/04 07:37:56;;;;;;;30.83;12.63;;;5.90;71.60;;;;;;4991364;28;20048;-70
2022/03/04 07:40:23;;;;;;;30.58;12.88;;;6.00;71.60;;;;;;4990430;28;20046;-70
2022/03/04 07:42:50;;;;;;;36.42;12.60;;;6.10;71.50;;;;;;4993526;28;20057;-70
2022/03/04 07:45:17;;;;;;;22.92;10.73;;;6.20;71.20;;;;;;5007894;28;20053;-71
2022/03/04 07:47:45;;;;;;;34.88;12.45;;;6.30;71.10;;;;;;4991566;28;20050;-71
2022/03/04 07:50:15;;;;;;;27.05;11.48;;;6.30;71.10;;;;;;5005633;28;20042;-71
2022/03/04 07:52:43;;;;;;;31.33;12.38;;;6.40;70.80;;;;;;4985968;28;20042;-71
2022/03/04 07:55:15;;;;;;;31.70;12.90;;;6.40;69.70;;;;;;5004563;28;20065;-70
2022/03/04 07:57:43;;;;;;;29.38;11.40;;;6.50;69.60;;;;;;4984573;28;20053;-71
2022/03/04 08:00:13;;;;;;;36.65;14.32;;;6.60;69.20;;;;;;4989918;28;20524;-71
2022/03/04 08:02:41;;;;;;;30.48;11.65;;;6.50;69.20;;;;;;4992192;28;20042;-71
2022/03/04 08:05:09;;;;;;;33.38;12.15;;;6.40;69.40;;;;;;4986866;28;20208;-70
2022/03/04 08:07:37;;;;;;;31.27;12.85;;;6.50;69.50;;;;;;4984157;28;20141;-71
2022/03/04 08:10:09;;;;;;;27.65;10.68;;;6.50;69.00;;;;;;4984646;28;20074;-71
2022/03/04 08:12:37;;;;;;;30.13;11.87;;;6.40;69.00;;;;;;4986029;28;20064;-70
2022/03/04 08:15:06;;;;;;;27.23;11.20;;;6.50;69.80;;;;;;4988571;28;20046;-71
2022/03/04 08:17:33;;;;;;;32.25;12.07;;;6.60;69.70;;;;;;4986367;28;20428;-71
2022/03/04 08:20:00;;;;;;;27.73;11.52;;;6.60;68.60;;;;;;4986518;28;20046;-70
2022/03/04 08:22:27;;;;;;;29.92;11.73;;;6.80;68.10;;;;;;4990142;28;20061;-70
2022/03/04 08:24:54;;;;;;;31.13;12.10;;;6.90;67.60;;;;;;5000156;28;20085;-70
2022/03/04 08:27:22;;;;;;;30.35;12.23;;;6.80;67.70;;;;;;4966658;28;20139;-70
2022/03/04 08:29:49;;;;;;;28.25;12.63;;;6.60;68.40;;;;;;4990308;28;20046;-72
2022/03/04 08:32:22;;;;;;;34.20;12.50;;;6.50;68.30;;;;;;4989339;28;20184;-70
2022/03/04 08:34:53;;;;;;;27.58;11.35;;;6.80;68.00;;;;;;4985513;28;20046;-70
2022/03/04 08:37:20;;;;;;;34.33;12.65;;;7.00;66.60;;;;;;4989293;28;20101;-70
2022/03/04 08:39:47;;;;;;;33.25;13.00;;;7.10;65.40;;;;;;5001857;28;20057;-71
2022/03/04 08:42:14;;;;;;;29.33;11.95;;;7.30;65.40;;;;;;4988616;28;20049;-71
2022/03/04 08:44:42;;;;;;;32.22;12.93;;;7.30;65.30;;;;;;4992432;28;20046;-71
2022/03/04 08:47:09;;;;;;;27.45;12.05;;;7.50;63.80;;;;;;4986351;28;20046;-75
2022/03/04 08:49:36;;;;;;;31.80;12.73;;;7.40;63.90;;;;;;4988377;28;20108;-72
2022/03/04 08:52:04;;;;;;;30.95;12.70;;;7.60;63.80;;;;;;5001928;28;20046;-72
2022/03/04 08:54:33;;;;;;;33.15;14.13;;;7.70;62.60;;;;;;4985914;28;20061;-70
2022/03/04 08:57:00;;;;;;;29.80;12.80;;;7.60;62.40;;;;;;4987898;28;20050;-71
2022/03/04 08:59:27;;;;;;;29.75;12.75;;;7.60;63.50;;;;;;5006988;28;20049;-70
2022/03/04 09:01:56;;;;;;;29.92;12.85;;;7.80;63.30;;;;;;4991099;28;20037;-70
2022/03/04 09:04:24;;;;;;;29.92;11.75;;;7.80;62.30;;;;;;5010122;28;20038;-71
2022/03/04 09:06:51;;;;;;;29.10;11.52;;;8.00;62.30;;;;;;4986612;28;20046;-70
2022/03/04 09:09:18;;;;;;;26.60;12.13;;;8.20;61.20;;;;;;5004229;28;20053;-70
2022/03/04 09:11:46;;;;;;;28.95;11.75;;;8.20;60.40;;;;;;4982763;28;20104;-70
2022/03/04 09:14:13;;;;;;;32.10;12.35;;;8.10;59.00;;;;;;4975600;28;20065;-71
2022/03/04 09:16:40;;;;;;;31.23;12.70;;;8.10;58.60;;;;;;4992790;28;20158;-70
2022/03/04 09:19:07;;;;;;;27.70;11.70;;;8.00;58.60;;;;;;4990901;28;20052;-70
2022/03/04 09:21:34;;;;;;;30.88;13.10;;;8.00;59.00;;;;;;4991207;28;20103;-70
2022/03/04 09:24:01;;;;;;;29.63;12.45;;;8.00;59.60;;;;;;4993552;28;20137;-72
2022/03/04 09:26:28;;;;;;;30.02;13.43;;;7.90;60.10;;;;;;4988027;28;20065;-70
2022/03/04 09:28:56;;;;;;;31.42;13.15;;;7.90;61.10;;;;;;4988700;28;20054;-70
2022/03/04 09:31:22;;;;;;;27.98;13.80;;;8.00;58.80;;;;;;5003636;28;20855;-70
2022/03/04 09:33:50;;;;;;;35.50;14.05;;;8.10;58.70;;;;;;4990107;28;20038;-70
2022/03/04 09:36:17;;;;;;;34.67;12.73;;;8.20;59.50;;;;;;4992328;28;20057;-70
2022/03/04 09:38:45;;;;;;;30.95;13.70;;;8.10;58.00;;;;;;5007213;28;20038;-70
2022/03/04 09:41:12;;;;;;;28.17;12.70;;;8.10;59.00;;;;;;4990333;28;20042;-70
2022/03/04 09:43:40;;;;;;;34.80;13.23;;;8.10;57.60;;;;;;5002820;28;21032;-70
2022/03/04 09:46:07;;;;;;;31.52;13.45;;;8.10;58.10;;;;;;5007234;28;20050;-70
2022/03/04 09:48:40;;;;;;;27.83;12.35;;;8.20;57.30;;;;;;4991277;28;20038;-71
2022/03/04 09:51:08;;;;;;;31.52;12.68;;;8.20;56.90;;;;;;4992786;28;20140;-70
2022/03/04 09:53:36;;;;;;;29.45;12.35;;;8.20;57.00;;;;;;5008047;28;20469;-70
2022/03/04 09:56:04;;;;;;;28.83;12.98;;;8.30;56.80;;;;;;4993587;28;20114;-70
2022/03/04 09:58:34;;;;;;;33.30;14.07;;;8.40;56.40;;;;;;5008339;28;20037;-71
2022/03/04 10:01:09;;;;;;;28.00;12.35;;;8.30;54.90;;;;;;4989986;28;20048;-70
2022/03/04 10:03:44;;;;;;;30.50;13.25;;;8.30;54.70;;;;;;5003181;28;20042;-70
2022/03/04 10:06:11;;;;;;;28.92;11.60;;;8.20;55.20;;;;;;4992298;28;20088;-70
2022/03/04 10:08:41;;;;;;;28.77;13.27;;;8.20;55.50;;;;;;4993735;28;20078;-70
2022/03/04 10:11:09;;;;;;;29.90;12.07;;;8.20;55.00;;;;;;5004947;28;20050;-70
2022/03/04 10:13:47;;;;;;;29.77;13.05;;;8.20;55.90;;;;;;4991906;28;20509;-70
2022/03/04 10:16:22;;;;;;;28.48;12.95;;;8.00;55.00;;;;;;4987132;28;21229;-71
2022/03/04 10:19:11;;;;;;;31.02;13.88;;;8.00;55.90;;;;;;4992913;28;20050;-70
2022/03/04 10:21:58;;;;;;;29.85;13.25;;;8.10;55.90;;;;;;4990027;28;20042;-71
2022/03/04 10:24:39;;;;;;;32.45;13.32;;;8.20;55.40;;;;;;4989811;28;20872;-71
2022/03/04 10:27:12;;;;;;;30.50;13.35;;;8.30;55.20;;;;;;4989585;28;20053;-72
2022/03/04 10:29:48;;;;;;;31.20;12.60;;;8.30;55.20;;;;;;5009002;28;20052;-72
2022/03/04 10:32:18;;;;;;;30.23;12.43;;;8.30;55.40;;;;;;4990163;28;20056;-70
2022/03/04 10:35:06;;;;;;;29.20;12.90;;;8.20;55.70;;;;;;4991340;28;20050;-70
2022/03/04 10:37:42;;;;;;;;;;;8.10;55.60;;;;;;4991671;28;20046;-70
2022/03/04 10:40:22;;;;;;;29.33;12.45;;;8.20;55.40;;;;;;5004001;28;20384;-70
2022/03/04 10:42:52;;;;;;;28.58;12.23;;;8.30;55.20;;;;;;4992298;28;20060;-70
2022/03/04 10:45:33;;;;;;;30.48;12.63;;;8.20;54.90;;;;;;4989133;28;20049;-70
2022/03/04 10:48:07;;;;;;;29.50;13.00;;;8.20;55.00;;;;;;4990356;28;20759;-69
2022/03/04 10:50:36;;;;;;;33.00;13.10;;;8.20;54.50;;;;;;5004970;28;20311;-69
2022/03/04 10:53:05;;;;;;;33.35;14.10;;;8.30;55.70;;;;;;4993012;28;20046;-70
2022/03/04 10:55:42;;;;;;;33.60;13.90;;;8.30;60.90;;;;;;4988141;28;24156;-70
2022/03/04 10:58:40;;;;;;;36.03;14.02;;;8.20;60.30;;;;;;4986442;28;20053;-70
2022/03/04 11:01:09;;;;;;;33.38;14.52;;;8.30;61.00;;;;;;4919473;28;20061;-71
2022/03/04 11:03:39;;;;;;;31.15;13.43;;;8.20;60.20;;;;;;5007406;28;21049;-71
2022/03/04 11:06:12;;;;;;;35.85;14.82;;;8.20;61.20;;;;;;4988648;28;20046;-72
2022/03/04 11:08:40;;;;;;;34.88;13.75;;;8.20;61.40;;;;;;5004717;28;20046;-71
2022/03/04 11:11:07;;;;;;;33.70;13.50;;;8.30;60.70;;;;;;4991830;28;20108;-72
2022/03/04 11:13:35;;;;;;;31.58;13.95;;;8.40;60.70;;;;;;4990947;28;20995;-72
2022/03/04 11:16:05;;;;;;;38.92;15.25;;;8.30;60.70;;;;;;4990711;28;20038;-72
2022/03/04 11:18:33;;;;;;;31.70;14.68;;;8.30;61.00;;;;;;4989787;28;20042;-71
2022/03/04 11:21:01;;;;;;;36.33;14.77;;;8.20;62.30;;;;;;4990950;28;20046;-72
2022/03/04 11:23:36;;;;;;;35.40;14.48;;;8.40;62.60;;;;;;4989753;28;20050;-70
2022/03/04 11:26:16;;;;;;;32.95;13.52;;;8.50;63.30;;;;;;4975235;28;20070;-71
2022/03/04 11:28:49;;;;;;;32.67;14.13;;;8.50;61.90;;;;;;5005404;28;20039;-70
2022/03/04 11:31:20;;;;;;;32.42;13.80;;;8.50;61.90;;;;;;4989009;28;20038;-70
2022/03/04 11:33:53;;;;;;;34.40;14.38;;;8.50;62.00;;;;;;5001377;28;20046;-70
2022/03/04 11:36:22;;;;;;;31.30;13.55;;;8.50;62.00;;;;;;5002643;28;20088;-70
2022/03/04 11:38:50;;;;;;;35.45;14.18;;;8.40;61.80;;;;;;4986292;28;20038;-70
2022/03/04 11:41:34;;;;;;;29.85;12.90;;;8.40;61.60;;;;;;4968765;28;20125;-70
2022/03/04 11:44:15;;;;;;;26.52;13.48;;;8.40;60.50;;;;;;4981861;28;20417;-70
2022/03/04 11:47:01;;;;;;;31.98;13.02;;;8.40;59.90;;;;;;4989522;28;20133;-71
2022/03/04 11:49:28;;;;;;;34.60;13.85;;;8.60;59.80;;;;;;4987936;28;20064;-72
2022/03/04 11:52:11;;;;;;;33.17;14.32;;;8.60;59.80;;;;;;4988900;28;20174;-71
2022/03/04 11:54:49;;;;;;;36.90;16.45;;;8.70;61.30;;;;;;5007137;28;20053;-71
2022/03/04 11:57:26;;;;;;;34.25;15.10;;;8.40;63.00;;;;;;4988529;28;20417;-73
2022/03/04 11:59:57;;;;;;;38.67;15.73;;;8.40;63.90;;;;;;4992231;28;20039;-72
2022/03/04 12:02:42;;;;;;;32.25;13.45;;;8.50;63.40;;;;;;4986691;28;20053;-73
2022/03/04 12:05:19;;;;;;;34.13;15.45;;;8.50;62.90;;;;;;4990677;28;20159;-72
2022/03/04 12:07:50;;;;;;;37.40;14.52;;;8.60;61.60;;;;;;5005152;28;20141;-72
2022/03/04 12:10:22;;;;;;;32.97;13.73;;;8.60;61.80;;;;;;4988777;28;20053;-71
2022/03/04 12:12:59;;;;;;;34.50;14.13;;;8.70;61.20;;;;;;4987780;28;20053;-72
2022/03/04 12:15:26;;;;;;;34.17;14.13;;;8.70;60.00;;;;;;4987580;28;20061;-72
2022/03/04 12:18:03;;;;;;;35.40;15.10;;;8.70;59.40;;;;;;4992422;28;20046;-71
2022/03/04 12:20:39;;;;;;;32.00;14.15;;;8.80;59.80;;;;;;5007654;28;20057;-71
2022/03/04 12:23:19;;;;;;;32.42;14.48;;;8.90;59.60;;;;;;4974398;28;20449;-72
2022/03/04 12:25:56;;;;;;;32.38;14.18;;;8.90;58.30;;;;;;4988978;28;20430;-72
2022/03/04 12:28:34;;;;;;;32.67;14.95;;;8.80;58.50;;;;;;5004834;28;20116;-72
2022/03/04 12:31:01;;;;;;;35.22;15.13;;;8.70;57.80;;;;;;4986869;28;20097;-70
2022/03/04 12:33:41;;;;;;;34.03;14.25;;;8.60;57.20;;;;;;4988812;28;20049;-70
2022/03/04 12:36:11;;;;;;;33.65;14.07;;;8.70;57.90;;;;;;4989895;28;20061;-70
2022/03/04 12:38:51;;;;;;;32.47;13.40;;;8.80;58.10;;;;;;4990080;28;20685;-71
2022/03/04 12:41:27;;;;;;;36.35;15.07;;;8.80;57.10;;;;;;4990655;28;20046;-71
2022/03/04 12:43:57;;;;;;;33.80;13.57;;;8.80;57.10;;;;;;5006463;28;20588;-71
2022/03/04 12:46:30;;;;;;;32.20;14.35;;;8.80;57.50;;;;;;5005608;28;20049;-73
2022/03/04 12:48:58;;;;;;;33.75;13.52;;;8.80;57.80;;;;;;4989274;28;20042;-71